Terminal Aerodrome Forecast
Issued by NWS Billings, MT

Home | Current Version | Previous Version | Text Only | Print | Product List | Glossary On
Versions: 1 2 3 4 5 6 7 8 9 10 11 12 13 14 15 16 17 18 19 20 21 22 23 24 25 26 27 28 29 30 31 32 33 34 35
000
FTUS45 KBYZ 011355 AAB
TAFMLS
TAF AMD
KMLS 011355Z 0114/0212 34007KT 4SM FU OVC030
      TEMPO 0114/0115 2SM FU
     FM011600 33010KT 5SM FU SCT030 SCT060
     FM012000 34011KT P6SM VCTS SCT060CB BKN100
     FM020300 02011G20KT P6SM VCTS SCT090CB=

USA.gov is the U.S. government's official web portal to all federal, state and local government web resources and services.